Etusivu
METAR-TAF:

METAR-TAF

Lentoasemat :

Nogales, Arizona, Yhdysvallat

Leveyspiiri: 31-25-15N, Pituuspiiri: 110-50-45W, korkeus merenpinnasta: 1198 m

Tämänhetkinen sää

Tämä raportti tehtiin 3 tuntia ja 33 minuuttia sitten, kello 02.54 UTC
tyyntä
Lämpötila 9°C
Kosteus 29%
Ilmanpaine 1016 hPa
Näkyvyys: 16.1 km
selkeää

METAR: KOLS 270254Z AUTO 00000KT 10SM CLR 09/M08 A3001 RMK AO2 SLP141 T00941078 53009

Aika: 23:27 (06:27 UTC)

Sääennuste

Tämä raportti tehtiin 1 tunti ja 7 minuuttia sitten, kello 05.20 UTC
Ennuste voimassa 27. päivästä klo 06 UTC - 28. päivään klo 06 UTC
Tuuli 5 kn idästä
Näkyvyys: 10 km
selkeää
From 27. päivästä klo 0800 UTC
Tuuli 4 kn eri suunnista
Näkyvyys: 10 km
selkeää
From 27. päivästä klo 2000 UTC
Tuuli 10 kn pohjoisen/luoteesta
Näkyvyys: 10 km
selkeää

TAF: KOLS 270520Z 2706/2806 08005KT P6SM SKC FM270800 VRB04KT P6SM SKC FM272000 34010KT P6SM SKC

Säähavainnot ja -ennusteet yli 4000 lentoasemalta (METAR- ja TAF-raportit).

Käytössä olevat sääasemat on merkitty karttaan keltaisilla ja punaisilla pisteillä.

Aseta hiiri pisteen päälle nähdäksesi sääaseman nimen.

Klikkaa sitten nähdäksesi säähavainnot ja -ennusteet.

Kartan vaihtaminen: klikkaa mustalla rastilla varustettuja vihreitä pisteitä, niin voit zoomata sisään; viivalla varustettua vihreää pistettä, niin voit zoomata ulos tai vihreitä nuolia, niin pääset viereisille kartoille.


METAR-TAF: